Pagrindinis puslapis
METAR-TAF:

METAR-TAF

Oro uostai :

Sharurah, Saudo Arabija

platuma: 17-28N, ilguma: 047-07E, Aukštis: 720 m

Dabartinis oras

Ataskaita buvo paskelbta 13 minutes, ne 08:00 UTC
Vėjas 4 kt iš Rytų
Temperatūra 41°C
Drėgmė 10%
Slėgis 1009 hPa
Matomumas 10 km arba daugiau
nėra debesų žemiau 1500 m ir nėra kamuolinių lietaus debesų

METAR: OESH 240800Z 09004KT CAVOK 41/03 Q1009 NOSIG

Laikas: 11:13 (08:13 UTC)

Prognozė

Ataskaita buvo paskelbta 9 valandos ir 13 minutes, ne 23:00 UTC
Prognozė galioja nuo 24 metu 00 UTC su 25 metu 06 UTC
Vėjas 8 kt iš Pietų
Matomumas 10 km arba daugiau
nėra debesų žemiau 1500 m ir nėra kamuolinių lietaus debesų
Tapsmas
nuo 24 metu 08 UTC su 24 metu 10 UTC
Vėjas 10 kt iš Šiaurės Rytų
Tapsmas
nuo 24 metu 20 UTC su 24 metu 22 UTC
Vėjas 6 kt iš Pietų/Pietryčių

TAF: OESH 232300Z 2400/2506 18008KT CAVOK BECMG 2408/2410 04010KT BECMG 2420/2422 16006KT

Orai ataskaitas ir orų prognozės (METAR, TAF).

turimą stotys yra geltonos ir raudonos taškus žemėlapyje.

Perkelti pele per norėdami pamatyti stoties vardą.

Tada spustelėkite, norėdami matyti oro stebėjimo ir prognozės.

Norėdami pakeisti žemėlapį: spustelėkite ant žalios mygtukų su juodo kryžiaus žemyn,; žalią mygtuką su brūkšneliu, jei norite nutolinti; arba žalių rodyklių gretimoms žemėlapius.


METAR-TAF: